Time;durP1;ratioP1;P1;durP2;ratioP2;P2;SDS_P1;SDS_P2;PMS_P1;PMS_P2;Temp;Humidity;BMP_temperature;BMP_pressure;BME280_temperature;BME280_humidity;BME280_pressure;Samples;Min_cycle;Max_cycle;Signal;HPM_P1;HPM_P2
2022/10/08 00:01:24;;;;;;;14.20;12.70;;;;;;;9.77;98.06;98328.52;103892;1291;23904;-80
2022/10/08 00:03:54;;;;;;;15.60;13.50;;;;;;;9.72;97.72;98328.62;104122;1307;22963;-79
2022/10/08 00:06:27;;;;;;;16.30;12.30;;;;;;;9.68;97.54;98323.92;104173;1307;22645;-79
2022/10/08 00:09:04;;;;;;;14.60;13.10;;;;;;;9.53;97.59;98323.24;103881;1307;22458;-79
2022/10/08 00:11:36;;;;;;;14.80;13.00;;;;;;;9.48;97.73;98316.50;104154;1298;22595;-78
2022/10/08 00:14:05;;;;;;;16.00;13.20;;;;;;;9.36;97.92;98314.70;103804;1287;22952;-78
2022/10/08 00:16:38;;;;;;;17.90;12.20;;;;;;;9.27;98.53;98315.73;103878;1307;25283;-79
2022/10/08 00:19:11;;;;;;;21.10;12.90;;;;;;;9.24;99.05;98318.02;103952;1294;22486;-78
2022/10/08 00:21:42;;;;;;;14.10;12.00;;;;;;;9.19;99.30;98316.98;103657;1298;22484;-80
2022/10/08 00:24:14;;;;;;;14.00;12.60;;;;;;;9.14;99.20;98313.47;104084;1304;22864;-81
2022/10/08 00:26:43;;;;;;;14.90;11.90;;;;;;;9.16;98.88;98312.25;103427;1310;23346;-79
2022/10/08 00:29:16;;;;;;;13.90;11.40;;;;;;;9.18;98.72;98308.37;103385;1307;25303;-80
2022/10/08 00:31:46;;;;;;;18.40;12.00;;;;;;;9.08;99.78;98305.05;103614;1307;22479;-77
2022/10/08 00:34:23;;;;;;;12.60;11.20;;;;;;;9.13;99.62;98309.05;103619;1282;25386;-81
2022/10/08 00:36:53;;;;;;;14.80;13.30;;;;;;;9.14;99.92;98301.52;103724;1307;25358;-79
2022/10/08 00:39:23;;;;;;;16.30;13.30;;;;;;;9.13;99.92;98298.52;103269;1301;25402;-82
2022/10/08 00:41:53;;;;;;;17.60;14.00;;;;;;;9.09;100.00;98297.04;103657;1307;25083;-82
2022/10/08 00:44:48;;;;;;;16.30;13.40;;;;;;;9.05;100.00;98292.07;103680;1285;23936;-83
2022/10/08 00:47:23;;;;;;;17.30;13.40;;;;;;;9.01;100.00;98289.61;104103;1294;25249;-81
2022/10/08 00:49:56;;;;;;;14.40;12.90;;;;;;;8.95;100.00;98283.09;104062;1307;22679;-80
2022/10/08 00:52:27;;;;;;;19.50;13.40;;;;;;;8.89;100.00;98283.55;103843;1307;24488;-80
2022/10/08 00:54:56;;;;;;;16.60;14.80;;;;;;;8.85;100.00;98282.30;103770;1305;22498;-81
2022/10/08 00:57:25;;;;;;;18.30;14.50;;;;;;;8.85;100.00;98278.38;103649;1300;22483;-81
2022/10/08 00:59:55;;;;;;;22.40;13.80;;;;;;;8.88;100.00;98275.39;103795;1307;24676;-84
2022/10/08 01:02:23;;;;;;;17.50;12.30;;;;;;;8.89;100.00;98271.15;103694;1294;22581;-83
2022/10/08 01:04:51;;;;;;;16.40;12.10;;;;;;;8.90;100.00;98273.61;104182;1285;22482;-82
2022/10/08 01:07:28;;;;;;;14.60;11.80;;;;;;;8.89;100.00;98268.52;103586;1291;22599;-81
2022/10/08 01:10:12;;;;;;;14.70;12.40;;;;;;;8.84;100.00;98263.92;104155;1285;25244;-80
2022/10/08 01:12:55;;;;;;;15.20;13.60;;;;;;;8.77;100.00;98257.20;103522;1295;22469;-81
2022/10/08 01:15:43;;;;;;;15.10;12.60;;;;;;;8.68;99.94;98260.20;103392;1288;22473;-81
2022/10/08 01:18:31;;;;;;;14.40;13.00;;;;;;;8.64;100.00;98257.31;103544;1307;22540;-81
2022/10/08 01:21:06;;;;;;;16.00;11.90;;;;;;;8.62;100.00;98254.80;104154;1306;22498;-82
2022/10/08 01:23:33;;;;;;;18.90;12.40;;;;;;;8.65;100.00;98254.36;104015;1306;22523;-84
2022/10/08 01:26:04;;;;;;;14.70;12.10;;;;;;;8.65;100.00;98253.30;104042;1305;22484;-84
2022/10/08 01:28:40;;;;;;;14.90;13.10;;;;;;;8.60;100.00;98249.27;104042;1305;22493;-83
2022/10/08 01:31:14;;;;;;;15.40;13.90;;;;;;;8.54;100.00;98245.81;104099;1281;25559;-82
2022/10/08 01:33:51;;;;;;;;;;;;;;;8.46;100.00;98245.90;104006;1307;24218;-83
2022/10/08 01:36:22;;;;;;;17.10;15.20;;;;;;;8.47;100.00;98244.35;103985;1303;22470;-79
2022/10/08 01:38:55;;;;;;;17.10;14.40;;;;;;;8.49;100.00;98241.11;103909;1307;23425;-82
2022/10/08 01:41:25;;;;;;;15.90;13.40;;;;;;;8.45;100.00;98245.91;103822;1295;22505;-82
2022/10/08 01:44:01;;;;;;;16.70;13.60;;;;;;;8.44;100.00;98244.04;103773;1299;22486;-82
2022/10/08 01:46:30;;;;;;;15.00;12.60;;;;;;;8.47;100.00;98243.61;103337;1300;23262;-83
2022/10/08 01:49:06;;;;;;;16.00;12.70;;;;;;;8.49;100.00;98246.55;103500;1307;22526;-83
2022/10/08 01:51:46;;;;;;;15.70;14.20;;;;;;;8.50;100.00;98241.22;103768;1307;25316;-82
2022/10/08 01:54:16;;;;;;;18.60;16.80;;;;;;;8.49;99.66;98245.31;103434;1307;22469;-82
2022/10/08 01:56:46;;;;;;;21.60;17.70;;;;;;;8.39;99.50;98245.20;103420;1307;25210;-82
2022/10/08 01:59:19;;;;;;;21.50;19.30;;;;;;;8.35;99.84;98237.13;103821;1307;24318;-83
2022/10/08 02:02:12;;;;;;;20.50;17.10;;;;;;;8.32;99.77;98236.98;103541;1301;22466;-82
2022/10/08 02:04:41;;;;;;;15.30;13.70;;;;;;;8.27;99.73;98234.58;103628;1306;22466;-83
2022/10/08 02:07:14;;;;;;;14.00;12.50;;;;;;;8.22;99.46;98234.27;103593;1289;23882;-83
2022/10/08 02:09:50;;;;;;;20.30;14.50;;;;;;;8.14;99.68;98233.73;103645;1295;25344;-82
2022/10/08 02:12:19;;;;;;;16.00;14.40;;;;;;;8.17;99.80;98235.74;103718;1300;25318;-83
2022/10/08 02:14:51;;;;;;;17.00;15.20;;;;;;;8.15;99.79;98233.34;103577;1301;22460;-83
2022/10/08 02:17:23;;;;;;;16.90;15.30;;;;;;;8.12;99.45;98232.02;103613;1307;22470;-83
2022/10/08 02:19:58;;;;;;;16.40;14.90;;;;;;;8.09;99.68;98237.27;103856;1307;22463;-82
2022/10/08 02:22:31;;;;;;;;;;;;;;;8.09;99.70;98233.26;103826;1297;22884;-83
2022/10/08 02:25:25;;;;;;;15.10;13.50;;;;;;;8.07;99.56;98232.73;103842;1303;24298;-83
2022/10/08 02:28:16;;;;;;;15.20;12.30;;;;;;;8.05;99.35;98230.48;103734;1307;25550;-83
2022/10/08 02:30:54;;;;;;;14.40;13.00;;;;;;;8.03;99.55;98230.06;103802;1307;24397;-83
2022/10/08 02:33:46;;;;;;;18.80;14.00;;;;;;;8.00;99.73;98229.42;103813;1293;22480;-82
2022/10/08 02:36:18;;;;;;;17.40;15.50;;;;;;;7.99;99.93;98224.55;103636;1307;24330;-83
2022/10/08 02:38:52;;;;;;;17.10;12.80;;;;;;;8.04;100.00;98225.39;103607;1302;22548;-83
2022/10/08 02:41:27;;;;;;;16.20;12.90;;;;;;;7.89;100.00;98228.70;103616;1303;22488;-82
2022/10/08 02:43:58;;;;;;;16.20;12.30;;;;;;;7.82;100.00;98228.20;103682;1305;23877;-82
2022/10/08 02:46:33;;;;;;;14.70;13.30;;;;;;;7.81;100.00;98226.48;103708;1306;25194;-82
2022/10/08 02:49:11;;;;;;;16.60;13.50;;;;;;;7.75;100.00;98226.88;103598;1307;24307;-80
2022/10/08 02:51:44;;;;;;;14.90;13.40;;;;;;;7.76;100.00;98227.35;103630;1305;22500;-79
2022/10/08 02:54:12;;;;;;;15.80;13.70;;;;;;;7.79;100.00;98231.42;103616;1285;25313;-80
2022/10/08 02:56:52;;;;;;;14.50;12.20;;;;;;;7.81;100.00;98227.02;103598;1307;22464;-79
2022/10/08 02:59:21;;;;;;;14.90;12.70;;;;;;;7.80;100.00;98225.04;103614;1304;22471;-80
2022/10/08 03:01:56;;;;;;;16.70;11.70;;;;;;;7.81;100.00;98226.91;103618;1295;22498;-80
2022/10/08 03:04:36;;;;;;;16.00;12.60;;;;;;;7.88;100.00;98227.90;103607;1307;24248;-80
2022/10/08 03:07:05;;;;;;;19.40;13.10;;;;;;;7.91;100.00;98231.34;103577;1282;25236;-80
2022/10/08 03:09:39;;;;;;;18.00;13.60;;;;;;;7.93;100.00;98233.41;103523;1291;23277;-80
2022/10/08 03:12:07;;;;;;;;;;;;;;;7.92;100.00;98235.25;103505;1306;25513;-81
2022/10/08 03:14:42;;;;;;;18.90;12.90;;;;;;;7.92;100.00;98233.15;103511;1307;24462;-80
2022/10/08 03:17:16;;;;;;;15.10;11.90;;;;;;;7.92;100.00;98226.82;103768;1297;24210;-81
2022/10/08 03:19:44;;;;;;;21.20;16.80;;;;;;;7.97;100.00;98221.86;103726;1295;23451;-81
2022/10/08 03:22:11;;;;;;;26.50;23.90;;;;;;;7.96;100.00;98222.09;103804;1307;24263;-80
2022/10/08 03:24:39;;;;;;;31.10;28.00;;;;;;;8.01;100.00;98220.94;103812;1288;25276;-80
2022/10/08 03:27:07;;;;;;;33.30;30.20;;;;;;;8.06;100.00;98217.06;103806;1282;24217;-80
2022/10/08 03:29:35;;;;;;;39.10;35.10;;;;;;;8.06;100.00;98217.92;103519;1307;22487;-80
2022/10/08 03:32:03;;;;;;;34.80;31.30;;;;;;;8.04;100.00;98218.10;103855;1307;22532;-79
2022/10/08 03:34:31;;;;;;;33.80;30.40;;;;;;;8.04;100.00;98217.98;103783;1298;22476;-80
2022/10/08 03:36:59;;;;;;;33.00;29.60;;;;;;;8.02;100.00;98213.37;103868;1307;22524;-80
2022/10/08 03:39:27;;;;;;;32.00;27.00;;;;;;;7.98;100.00;98215.11;103747;1298;25169;-81
2022/10/08 03:41:55;;;;;;;30.10;25.80;;;;;;;7.95;100.00;98215.39;103612;1301;22470;-80
2022/10/08 03:44:22;;;;;;;33.90;30.00;;;;;;;7.92;100.00;98217.86;103614;1307;22490;-80
2022/10/08 03:46:50;;;;;;;31.70;28.60;;;;;;;7.90;100.00;98222.91;103594;1307;22474;-80
2022/10/08 03:49:18;;;;;;;26.80;24.00;;;;;;;7.86;100.00;98220.73;103650;1303;25313;-80
2022/10/08 03:51:46;;;;;;;31.70;28.30;;;;;;;7.74;100.00;98222.64;103588;1307;22479;-80
2022/10/08 03:54:14;;;;;;;31.30;28.40;;;;;;;7.64;100.00;98222.44;103555;1292;25278;-81
2022/10/08 03:56:42;;;;;;;32.90;29.70;;;;;;;7.61;100.00;98219.70;103615;1297;22488;-79
2022/10/08 03:59:10;;;;;;;31.80;28.30;;;;;;;7.63;100.00;98219.12;103604;1291;22469;-78
2022/10/08 04:01:38;;;;;;;29.70;26.60;;;;;;;7.62;100.00;98217.40;103565;1283;22464;-80
2022/10/08 04:04:05;;;;;;;27.20;24.80;;;;;;;7.59;100.00;98216.70;103664;1302;22462;-81
2022/10/08 04:06:33;;;;;;;25.00;21.30;;;;;;;7.59;100.00;98216.11;103730;1292;22498;-81
2022/10/08 04:09:01;;;;;;;27.20;23.50;;;;;;;7.52;100.00;98213.08;103807;1306;24674;-80
2022/10/08 04:11:29;;;;;;;28.50;25.20;;;;;;;7.49;100.00;98209.98;103504;1310;24336;-79
2022/10/08 04:13:59;;;;;;;26.60;23.70;;;;;;;7.46;100.00;98208.41;103805;1308;24262;-79
2022/10/08 04:16:27;;;;;;;36.50;27.80;;;;;;;7.45;100.00;98209.21;103536;1301;22483;-81
2022/10/08 04:18:55;;;;;;;28.60;24.60;;;;;;;7.42;100.00;98206.02;103458;1310;22862;-81
2022/10/08 04:21:23;;;;;;;39.10;25.50;;;;;;;7.42;100.00;98208.48;103575;1296;25361;-81
2022/10/08 04:23:50;;;;;;;27.30;22.60;;;;;;;7.41;100.00;98205.96;103488;1290;22475;-81
2022/10/08 04:26:18;;;;;;;31.10;26.60;;;;;;;7.42;100.00;98209.23;103441;1310;22529;-80
2022/10/08 04:28:47;;;;;;;25.00;21.60;;;;;;;7.38;100.00;98208.16;103838;1309;24220;-81
2022/10/08 04:31:17;;;;;;;21.10;18.90;;;;;;;7.36;100.00;98212.23;103373;1297;22477;-81
2022/10/08 04:33:46;;;;;;;22.00;17.60;;;;;;;7.35;100.00;98208.91;104067;1309;22776;-81
2022/10/08 04:36:17;;;;;;;21.80;16.00;;;;;;;7.34;100.00;98209.77;103730;1309;23910;-80
2022/10/08 04:38:45;;;;;;;16.70;15.00;;;;;;;7.30;100.00;98205.91;103923;1304;22454;-81
2022/10/08 04:41:24;;;;;;;20.90;15.30;;;;;;;7.30;100.00;98201.09;103921;1298;22488;-80
2022/10/08 04:43:57;;;;;;;18.10;15.00;;;;;;;7.32;100.00;98201.15;103830;1295;23374;-80
2022/10/08 04:46:25;;;;;;;19.30;16.00;;;;;;;7.39;100.00;98197.29;103929;1288;25341;-80
2022/10/08 04:48:55;;;;;;;16.70;15.10;;;;;;;7.35;100.00;98196.31;103836;1308;22481;-81
2022/10/08 04:51:25;;;;;;;28.30;18.40;;;;;;;7.33;100.00;98198.36;103684;1306;24391;-82
2022/10/08 04:53:55;;;;;;;22.70;16.30;;;;;;;7.28;100.00;98199.00;103664;1291;25262;-81
2022/10/08 04:56:26;;;;;;;19.50;17.00;;;;;;;7.23;100.00;98200.61;103892;1291;23138;-81
2022/10/08 04:58:57;;;;;;;17.00;15.20;;;;;;;7.24;100.00;98203.35;103955;1291;22479;-79
2022/10/08 05:01:26;;;;;;;18.40;15.40;;;;;;;7.31;100.00;98200.23;103769;1307;23853;-81
2022/10/08 05:03:55;;;;;;;20.40;16.90;;;;;;;7.34;100.00;98202.05;103920;1293;22467;-79
2022/10/08 05:06:26;;;;;;;16.30;14.60;;;;;;;7.27;100.00;98202.54;103669;1304;22626;-80
2022/10/08 05:08:57;;;;;;;18.00;16.10;;;;;;;7.26;100.00;98202.02;103833;1304;24317;-79
2022/10/08 05:11:26;;;;;;;19.60;17.70;;;;;;;7.26;100.00;98201.91;103508;1291;25250;-79
2022/10/08 05:13:55;;;;;;;18.40;15.10;;;;;;;7.23;100.00;98202.42;103653;1310;24231;-80
2022/10/08 05:16:25;;;;;;;19.30;17.00;;;;;;;7.31;100.00;98202.00;103984;1288;23920;-80
2022/10/08 05:18:53;;;;;;;17.70;15.70;;;;;;;7.40;100.00;98204.20;103953;1305;22487;-80
2022/10/08 05:21:24;;;;;;;18.40;15.50;;;;;;;7.45;100.00;98204.02;103886;1298;25247;-79
2022/10/08 05:24:11;;;;;;;17.60;15.80;;;;;;;7.51;100.00;98206.74;103647;1289;25281;-79
2022/10/08 05:26:39;;;;;;;18.20;14.90;;;;;;;7.57;100.00;98208.19;103879;1302;22461;-80
2022/10/08 05:29:29;;;;;;;17.60;14.70;;;;;;;7.65;100.00;98208.16;103917;1307;22933;-79
2022/10/08 05:31:57;;;;;;;17.20;15.30;;;;;;;7.72;100.00;98209.07;103929;1307;25499;-79
2022/10/08 05:34:25;;;;;;;17.10;14.40;;;;;;;7.84;100.00;98212.30;103902;1307;22533;-80
2022/10/08 05:36:53;;;;;;;17.00;14.30;;;;;;;7.91;100.00;98208.79;103487;1308;22503;-80
2022/10/08 05:39:26;;;;;;;18.10;15.00;;;;;;;7.98;100.00;98206.94;103596;1307;24265;-80
2022/10/08 05:41:54;;;;;;;18.30;16.40;;;;;;;8.08;100.00;98206.91;103859;1307;23016;-80
2022/10/08 05:44:22;;;;;;;20.30;16.20;;;;;;;8.16;100.00;98209.17;103455;1309;24218;-79
2022/10/08 05:46:50;;;;;;;18.70;16.30;;;;;;;8.22;100.00;98212.38;103579;1307;22471;-79
2022/10/08 05:49:20;;;;;;;20.40;17.50;;;;;;;8.28;100.00;98211.16;103870;1307;22457;-79
2022/10/08 05:51:49;;;;;;;19.90;17.90;;;;;;;8.38;100.00;98219.67;103987;1298;22880;-80
2022/10/08 05:54:18;;;;;;;26.60;18.30;;;;;;;8.44;100.00;98217.56;103897;1307;25345;-80
2022/10/08 05:56:45;;;;;;;22.10;17.60;;;;;;;8.51;100.00;98218.98;103528;1307;22474;-80
2022/10/08 05:59:19;;;;;;;22.40;17.70;;;;;;;8.63;100.00;98223.00;103591;1285;25298;-80
2022/10/08 06:01:48;;;;;;;19.20;17.10;;;;;;;8.79;100.00;98224.34;103576;1306;22464;-80
2022/10/08 06:04:17;;;;;;;19.40;17.30;;;;;;;8.95;100.00;98220.42;103961;1307;22508;-79
2022/10/08 06:06:45;;;;;;;22.60;18.40;;;;;;;9.11;100.00;98220.25;103792;1307;22880;-81
2022/10/08 06:09:17;;;;;;;19.10;17.10;;;;;;;9.25;100.00;98222.13;103817;1307;22466;-80
2022/10/08 06:11:47;;;;;;;23.30;16.50;;;;;;;9.42;100.00;98224.79;103571;1307;24319;-79
2022/10/08 06:14:16;;;;;;;19.00;15.40;;;;;;;9.57;100.00;98221.99;103467;1307;22479;-79
2022/10/08 06:16:44;;;;;;;18.60;15.50;;;;;;;9.71;100.00;98226.54;103665;1292;22568;-80
2022/10/08 06:19:12;;;;;;;21.00;18.10;;;;;;;9.85;100.00;98230.67;103635;1307;23208;-80
2022/10/08 06:21:40;;;;;;;28.30;25.70;;;;;;;9.97;100.00;98230.84;103759;1306;25297;-80
2022/10/08 06:24:10;;;;;;;19.90;18.00;;;;;;;10.09;100.00;98234.85;103446;1287;24204;-81
2022/10/08 06:26:40;;;;;;;20.20;17.50;;;;;;;10.22;100.00;98234.38;103483;1300;25416;-80
2022/10/08 06:29:17;;;;;;;21.50;17.30;;;;;;;10.37;100.00;98231.02;103531;1307;22734;-81
2022/10/08 06:31:45;;;;;;;21.30;19.00;;;;;;;10.51;100.00;98232.27;103632;1299;22483;-81
2022/10/08 06:34:13;;;;;;;21.20;18.70;;;;;;;10.64;100.00;98237.00;103587;1302;22449;-80
2022/10/08 06:36:41;;;;;;;20.60;18.30;;;;;;;10.78;100.00;98232.07;103482;1307;24219;-80
2022/10/08 06:39:12;;;;;;;21.40;17.60;;;;;;;10.90;100.00;98229.07;103754;1304;22467;-80
2022/10/08 06:41:40;;;;;;;18.30;15.40;;;;;;;11.04;100.00;98233.06;103579;1286;22492;-80
2022/10/08 06:44:12;;;;;;;21.10;17.40;;;;;;;11.17;100.00;98238.13;103824;1285;25244;-80
2022/10/08 06:46:41;;;;;;;19.50;16.60;;;;;;;11.31;100.00;98235.29;103909;1299;22578;-80
2022/10/08 06:49:10;;;;;;;21.00;17.10;;;;;;;11.48;100.00;98234.90;103822;1307;22518;-82
2022/10/08 06:51:38;;;;;;;19.30;16.40;;;;;;;11.63;100.00;98234.15;103516;1307;22460;-80
2022/10/08 06:54:06;;;;;;;18.70;16.40;;;;;;;11.78;100.00;98228.76;103828;1305;25354;-80
2022/10/08 06:56:37;;;;;;;19.70;16.00;;;;;;;11.95;100.00;98232.25;103659;1291;25279;-80
2022/10/08 06:59:06;;;;;;;19.50;15.80;;;;;;;12.14;100.00;98233.81;103634;1307;22532;-80
2022/10/08 07:01:35;;;;;;;20.70;17.30;;;;;;;12.32;100.00;98233.46;103835;1307;22609;-79
2022/10/08 07:04:05;;;;;;;20.30;17.10;;;;;;;12.49;100.00;98230.95;103628;1275;22477;-80
2022/10/08 07:06:33;;;;;;;20.40;16.50;;;;;;;12.62;100.00;98227.21;103768;1298;25219;-80
2022/10/08 07:09:03;;;;;;;17.10;13.70;;;;;;;12.76;100.00;98228.73;103678;1307;22488;-80
2022/10/08 07:11:32;;;;;;;16.80;14.00;;;;;;;12.89;100.00;98228.49;103800;1307;26126;-79
2022/10/08 07:14:00;;;;;;;15.30;12.60;;;;;;;13.01;100.00;98234.61;103589;1303;22479;-80
2022/10/08 07:16:28;;;;;;;19.50;13.40;;;;;;;13.12;100.00;98234.67;103549;1307;25224;-79
2022/10/08 07:18:57;;;;;;;15.10;12.50;;;;;;;13.24;100.00;98231.86;103783;1307;22492;-80
2022/10/08 07:21:27;;;;;;;19.10;13.60;;;;;;;13.34;100.00;98229.59;103475;1307;22868;-80
2022/10/08 07:23:58;;;;;;;14.80;13.30;;;;;;;13.46;100.00;98226.31;103879;1303;22977;-80
2022/10/08 07:26:31;;;;;;;15.10;11.10;;;;;;;13.58;100.00;98225.63;103771;1291;22518;-80
2022/10/08 07:29:19;;;;;;;15.00;11.00;;;;;;;13.69;100.00;98225.40;103559;1302;23357;-80
2022/10/08 07:31:47;;;;;;;17.30;10.70;;;;;;;13.82;100.00;98219.86;103519;1307;25285;-81
2022/10/08 07:34:15;;;;;;;13.60;10.70;;;;;;;13.92;100.00;98220.58;103771;1307;24089;-80
2022/10/08 07:36:43;;;;;;;17.10;10.50;;;;;;;13.99;100.00;98224.55;103512;1303;22505;-80
2022/10/08 07:39:13;;;;;;;13.20;10.20;;;;;;;14.07;100.00;98223.40;103508;1291;22590;-80
2022/10/08 07:41:41;;;;;;;14.80;10.10;;;;;;;14.18;100.00;98224.72;103793;1298;23090;-80
2022/10/08 07:44:11;;;;;;;12.10;10.80;;;;;;;14.29;100.00;98222.00;103517;1306;22483;-81
2022/10/08 07:46:47;;;;;;;14.30;10.30;;;;;;;14.40;100.00;98223.50;103412;1291;22582;-80
2022/10/08 07:49:17;;;;;;;16.50;9.70;;;;;;;14.46;100.00;98220.45;103782;1286;22501;-80
2022/10/08 07:51:45;;;;;;;14.50;10.00;;;;;;;14.51;99.51;98222.17;103435;1285;25317;-80
2022/10/08 07:54:17;;;;;;;15.00;9.80;;;;;;;14.57;100.00;98218.10;103802;1307;25468;-80
2022/10/08 07:56:45;;;;;;;14.20;9.70;;;;;;;14.69;100.00;98215.25;103864;1304;22471;-80
2022/10/08 07:59:14;;;;;;;13.40;9.30;;;;;;;14.81;100.00;98213.35;103811;1299;25281;-79
2022/10/08 08:01:43;;;;;;;13.90;9.80;;;;;;;14.93;99.95;98210.38;103918;1299;22464;-80
2022/10/08 08:04:11;;;;;;;15.00;9.90;;;;;;;15.05;100.00;98207.27;103848;1307;26477;-81
2022/10/08 08:06:46;;;;;;;15.90;9.80;;;;;;;15.19;100.00;98205.80;103832;1307;22512;-80
2022/10/08 08:09:15;;;;;;;11.60;8.40;;;;;;;15.32;99.94;98211.77;103924;1297;22522;-80
2022/10/08 08:11:45;;;;;;;10.70;7.30;;;;;;;15.45;99.88;98207.23;103445;1307;24217;-80
2022/10/08 08:14:13;;;;;;;10.40;8.10;;;;;;;15.59;99.07;98210.30;103508;1295;25201;-80
2022/10/08 08:16:40;;;;;;;11.10;8.10;;;;;;;15.71;98.86;98210.35;103638;1283;25251;-80
2022/10/08 08:19:08;;;;;;;11.50;7.40;;;;;;;15.81;97.79;98204.73;103662;1307;24416;-80
2022/10/08 08:21:37;;;;;;;12.60;7.80;;;;;;;15.88;96.56;98201.34;103836;1282;25281;-80
2022/10/08 08:24:11;;;;;;;15.20;7.90;;;;;;;15.94;96.91;98205.09;103833;1281;25144;-80
2022/10/08 08:26:40;;;;;;;9.10;7.20;;;;;;;16.03;96.52;98199.14;103496;1307;25322;-80
2022/10/08 08:29:14;;;;;;;10.00;7.70;;;;;;;16.11;96.03;98200.50;103517;1307;25688;-80
2022/10/08 08:31:47;;;;;;;11.90;7.70;;;;;;;16.21;95.72;98204.31;103530;1307;24269;-81
2022/10/08 08:34:22;;;;;;;14.20;10.90;;;;;;;16.33;94.78;98207.42;103785;1305;24479;-80
2022/10/08 08:36:55;;;;;;;12.90;7.60;;;;;;;16.45;94.42;98208.64;103728;1298;22582;-81
2022/10/08 08:39:27;;;;;;;12.00;7.00;;;;;;;16.59;94.37;98206.39;103608;1307;24352;-82
2022/10/08 08:42:33;;;;;;;8.90;6.30;;;;;;;16.71;93.02;98205.99;103608;1307;22464;-81
2022/10/08 08:45:13;;;;;;;9.70;6.80;;;;;;;16.80;92.28;98202.30;103581;1306;23214;-81
2022/10/08 08:48:13;;;;;;;11.80;6.40;;;;;;;16.89;90.34;98206.52;103581;1306;23915;-81
2022/10/08 08:50:42;;;;;;;12.20;6.80;;;;;;;16.91;89.61;98204.80;103609;1298;22475;-82
2022/10/08 08:53:17;;;;;;;10.00;6.60;;;;;;;16.97;88.95;98208.14;103677;1292;25277;-82
2022/10/08 08:55:53;;;;;;;12.50;6.80;;;;;;;17.03;87.89;98208.60;103933;1307;25245;-82
2022/10/08 08:58:48;;;;;;;12.10;6.30;;;;;;;17.13;88.60;98205.08;103832;1291;25200;-82
2022/10/08 09:01:28;;;;;;;9.20;5.50;;;;;;;17.24;87.71;98205.55;103479;1307;23250;-82
2022/10/08 09:04:08;;;;;;;9.90;6.10;;;;;;;17.34;86.27;98203.86;103765;1297;23579;-82
2022/10/08 09:06:38;;;;;;;6.60;4.70;;;;;;;17.37;83.78;98210.05;103801;1307;24410;-80
2022/10/08 09:09:30;;;;;;;12.10;5.20;;;;;;;17.44;84.29;98210.77;103692;1307;25319;-81
2022/10/08 09:11:59;;;;;;;8.10;4.80;;;;;;;17.47;80.47;98213.12;103694;1306;23910;-81
2022/10/08 09:14:53;;;;;;;8.30;5.30;;;;;;;17.46;80.52;98212.86;103774;1285;22567;-81
2022/10/08 09:17:31;;;;;;;12.80;5.50;;;;;;;17.53;78.06;98210.11;103837;1296;22721;-83
2022/10/08 09:20:02;;;;;;;9.00;4.80;;;;;;;17.57;78.30;98207.52;103496;1307;22487;-81
2022/10/08 09:22:35;;;;;;;10.70;5.40;;;;;;;17.60;76.69;98207.39;103636;1307;24309;-80
2022/10/08 09:25:06;;;;;;;9.50;5.40;;;;;;;17.64;75.92;98204.21;103573;1306;24244;-81
2022/10/08 09:27:45;;;;;;;6.60;5.00;;;;;;;17.69;75.08;98204.67;103725;1305;24321;-81
2022/10/08 09:30:27;;;;;;;10.10;5.30;;;;;;;17.78;72.98;98203.11;103544;1307;22486;-80
2022/10/08 09:33:00;;;;;;;9.00;5.70;;;;;;;17.89;75.23;98202.04;103513;1299;23200;-81
2022/10/08 09:35:31;;;;;;;6.80;4.80;;;;;;;18.00;72.66;98203.40;103524;1288;22499;-80
2022/10/08 09:38:00;;;;;;;10.00;6.30;;;;;;;18.05;70.61;98204.98;103546;1307;24325;-80
2022/10/08 09:40:32;;;;;;;8.30;5.90;;;;;;;18.11;70.25;98205.23;103694;1283;22596;-83
2022/10/08 09:43:16;;;;;;;8.00;5.30;;;;;;;18.13;70.23;98204.30;103800;1292;23921;-81
2022/10/08 09:45:48;;;;;;;10.30;5.80;;;;;;;18.21;69.59;98200.16;103798;1307;22734;-82
2022/10/08 09:48:25;;;;;;;8.20;6.10;;;;;;;18.29;70.56;98194.50;103418;1299;22511;-82
2022/10/08 09:51:06;;;;;;;12.80;6.40;;;;;;;18.40;69.01;98190.95;103618;1300;25550;-83
2022/10/08 09:53:39;;;;;;;11.90;6.60;;;;;;;18.52;67.78;98191.30;103754;1299;22780;-82
2022/10/08 09:56:09;;;;;;;10.40;8.70;;;;;;;18.56;68.06;98181.05;103635;1306;23032;-83
2022/10/08 09:58:58;;;;;;;9.80;7.20;;;;;;;18.67;67.92;98182.09;103579;1307;23190;-88
2022/10/08 10:01:30;;;;;;;11.00;7.80;;;;;;;18.76;67.33;98177.55;103710;1306;24486;-85
2022/10/08 10:04:00;;;;;;;9.10;7.10;;;;;;;18.81;65.77;98183.14;103596;1307;25248;-84
2022/10/08 10:06:32;;;;;;;9.10;7.70;;;;;;;18.90;65.98;98175.76;103720;1301;150472;-83
2022/10/08 10:09:10;;;;;;;14.40;7.80;;;;;;;19.00;64.19;98179.17;103405;1300;25270;-83
2022/10/08 10:11:48;;;;;;;12.10;7.30;;;;;;;19.07;64.65;98177.55;103664;1292;23273;-83
2022/10/08 10:14:35;;;;;;;12.30;7.70;;;;;;;19.13;63.91;98175.13;103633;1296;22492;-83
2022/10/08 10:17:24;;;;;;;8.90;7.30;;;;;;;19.10;64.39;98177.64;103865;1283;25256;-84
2022/10/08 10:19:58;;;;;;;12.10;7.80;;;;;;;19.11;63.22;98177.52;104107;1304;24247;-84
2022/10/08 10:22:32;;;;;;;12.10;7.70;;;;;;;19.04;64.44;98171.16;103839;1307;22477;-83
2022/10/08 10:25:08;;;;;;;12.80;7.90;;;;;;;19.02;64.32;98166.83;103882;1307;24425;-83
2022/10/08 10:27:43;;;;;;;12.30;8.20;;;;;;;18.97;63.75;98162.55;104010;1280;22485;-82
2022/10/08 10:30:22;;;;;;;9.00;8.00;;;;;;;18.94;64.19;98158.95;104031;1291;22492;-83
2022/10/08 10:32:54;;;;;;;9.70;7.40;;;;;;;18.98;64.73;98157.02;104030;1291;22457;-83
2022/10/08 10:35:25;;;;;;;10.80;7.90;;;;;;;18.98;63.44;98157.34;103903;1299;22464;-82
2022/10/08 10:38:02;;;;;;;9.10;7.60;;;;;;;18.89;62.80;98155.12;103790;1306;22485;-82
2022/10/08 10:40:44;;;;;;;12.00;7.90;;;;;;;18.77;62.69;98151.41;103650;1307;24247;-82
2022/10/08 10:43:40;;;;;;;13.30;7.50;;;;;;;18.71;62.88;98146.08;103562;1286;25421;-82
2022/10/08 10:46:17;;;;;;;10.20;7.30;;;;;;;18.64;62.27;98145.02;103820;1307;22470;-84
2022/10/08 10:48:45;;;;;;;8.50;7.00;;;;;;;18.61;62.29;98142.21;103901;1307;25244;-84
2022/10/08 10:51:21;;;;;;;8.90;6.90;;;;;;;18.56;62.29;98140.27;103499;1300;24220;-84
2022/10/08 10:53:51;;;;;;;12.70;7.80;;;;;;;18.54;62.34;98141.09;103510;1307;23875;-84
2022/10/08 10:56:21;;;;;;;9.20;7.40;;;;;;;18.57;62.62;98142.24;103806;1290;22519;-84
2022/10/08 10:59:26;;;;;;;11.70;7.70;;;;;;;18.61;62.81;98139.33;103537;1307;24253;-84
2022/10/08 11:02:11;;;;;;;9.50;6.70;;;;;;;18.68;61.92;98136.96;103787;1289;22476;-83
2022/10/08 11:05:03;;;;;;;7.70;6.70;;;;;;;18.74;62.36;98131.30;103768;1304;25572;-83
2022/10/08 11:07:40;;;;;;;11.00;7.20;;;;;;;18.98;62.03;98128.16;103806;1307;22464;-84
2022/10/08 11:10:28;;;;;;;9.20;6.90;;;;;;;19.15;62.30;98122.05;103896;1307;22676;-83
2022/10/08 11:13:18;;;;;;;10.90;7.80;;;;;;;19.41;62.03;98123.28;103546;1291;23223;-84
2022/10/08 11:16:04;;;;;;;9.80;7.80;;;;;;;19.51;60.61;98124.56;103782;1304;22667;-83
2022/10/08 11:18:54;;;;;;;10.10;6.90;;;;;;;19.42;60.31;98123.30;103831;1305;22506;-83
2022/10/08 11:21:25;;;;;;;8.00;7.20;;;;;;;19.48;60.15;98124.52;103730;1306;24232;-84
2022/10/08 11:23:55;;;;;;;12.40;11.00;;;;;;;19.52;60.30;98117.40;103608;1307;22524;-84
2022/10/08 11:26:36;;;;;;;12.30;9.90;;;;;;;19.52;60.06;98112.24;103620;1306;24308;-83
2022/10/08 11:29:32;;;;;;;12.40;9.00;;;;;;;19.36;60.08;98113.01;103802;1306;24398;-83
2022/10/08 11:32:01;;;;;;;9.20;7.80;;;;;;;19.21;60.53;98108.79;103840;1291;22488;-84
2022/10/08 11:34:34;;;;;;;11.00;9.20;;;;;;;19.13;60.97;98107.33;103729;1274;22485;-84
2022/10/08 11:37:05;;;;;;;11.90;7.80;;;;;;;19.15;61.51;98107.95;103672;1285;25337;-84
2022/10/08 11:40:00;;;;;;;11.00;9.80;;;;;;;19.34;61.41;98106.64;103637;1285;25320;-84
2022/10/08 11:43:03;;;;;;;11.80;10.60;;;;;;;19.42;60.91;98100.83;103597;1304;22914;-84